createdAt,value
2018-04-08T00:01:56.622Z,17.73
2018-04-08T00:04:24.855Z,21.83
2018-04-08T00:06:52.312Z,19.40
2018-04-08T00:09:19.803Z,18.17
2018-04-08T00:11:48.046Z,19.37
2018-04-08T00:14:15.525Z,20.43
2018-04-08T00:16:43.806Z,20.03
2018-04-08T00:19:11.311Z,22.10
2018-04-08T00:21:38.773Z,19.73
2018-04-08T00:24:06.252Z,23.17
2018-04-08T00:26:33.774Z,21.43
2018-04-08T00:29:01.264Z,21.07
2018-04-08T00:31:28.746Z,24.10
2018-04-08T00:33:56.231Z,24.60
2018-04-08T00:36:23.694Z,24.67
2018-04-08T00:38:51.197Z,18.60
2018-04-08T00:41:18.661Z,21.50
2018-04-08T00:43:46.134Z,22.17
2018-04-08T00:46:14.376Z,21.60
2018-04-08T00:48:41.850Z,21.87
2018-04-08T00:51:09.369Z,20.27
2018-04-08T00:53:36.823Z,24.27
2018-04-08T00:56:04.281Z,23.97
2018-04-08T00:58:31.792Z,23.73
2018-04-08T01:00:59.290Z,22.20
2018-04-08T01:03:26.757Z,21.90
2018-04-08T01:05:54.217Z,24.17
2018-04-08T01:08:21.726Z,26.20
2018-04-08T01:10:49.214Z,21.87
2018-04-08T01:13:16.677Z,26.80
2018-04-08T01:15:44.165Z,24.50
2018-04-08T01:18:11.642Z,21.47
2018-04-08T01:20:39.117Z,23.50
2018-04-08T01:23:07.330Z,20.87
2018-04-08T01:25:34.833Z,22.43
2018-04-08T01:28:02.297Z,23.20
2018-04-08T01:30:29.750Z,25.03
2018-04-08T01:32:57.242Z,23.93
2018-04-08T01:35:24.714Z,24.27
2018-04-08T01:37:52.209Z,25.63
2018-04-08T01:40:20.454Z,24.97
2018-04-08T01:42:47.922Z,22.57
2018-04-08T01:45:15.465Z,28.80
2018-04-08T01:47:42.939Z,26.03
2018-04-08T01:50:10.438Z,22.23
2018-04-08T01:52:37.934Z,24.80
2018-04-08T01:55:05.373Z,23.17
2018-04-08T01:57:32.851Z,21.70
2018-04-08T02:00:00.366Z,25.73
2018-04-08T02:02:27.822Z,25.67
2018-04-08T02:04:56.071Z,28.90
2018-04-08T02:07:23.554Z,27.37
2018-04-08T02:09:51.023Z,25.30
2018-04-08T02:12:19.251Z,26.33
2018-04-08T02:14:46.736Z,28.83
2018-04-08T02:17:14.190Z,27.47
2018-04-08T02:19:42.443Z,25.93
2018-04-08T02:22:10.041Z,26.53
2018-04-08T02:24:37.504Z,26.00
2018-04-08T02:27:04.982Z,25.57
2018-04-08T02:29:32.441Z,26.13
2018-04-08T02:31:59.959Z,28.50
2018-04-08T02:34:27.419Z,27.07
2018-04-08T02:36:54.874Z,28.37
2018-04-08T02:39:22.365Z,26.50
2018-04-08T02:41:50.671Z,28.73
2018-04-08T02:44:18.153Z,29.50
2018-04-08T02:46:45.646Z,22.10
2018-04-08T02:49:13.148Z,25.60
2018-04-08T02:51:40.613Z,27.57
2018-04-08T02:54:08.110Z,26.90
2018-04-08T02:56:35.567Z,27.47
2018-04-08T02:59:03.050Z,26.23
2018-04-08T03:01:31.311Z,28.67
2018-04-08T03:03:59.534Z,33.40
2018-04-08T03:06:27.024Z,27.03
2018-04-08T03:08:54.493Z,31.63
2018-04-08T03:11:21.973Z,28.17
2018-04-08T03:13:49.697Z,23.73
2018-04-08T03:16:17.173Z,27.13
2018-04-08T03:18:44.647Z,30.80
2018-04-08T03:21:12.898Z,29.50
2018-04-08T03:23:40.366Z,25.77
2018-04-08T03:26:07.878Z,27.73
2018-04-08T03:28:35.341Z,25.43
2018-04-08T03:31:02.824Z,28.47
2018-04-08T03:33:30.305Z,31.57
2018-04-08T03:35:58.526Z,27.50
2018-04-08T03:38:25.985Z,28.00
2018-04-08T03:40:53.485Z,28.10
2018-04-08T03:43:20.956Z,26.70
2018-04-08T03:45:48.430Z,27.53
2018-04-08T03:48:15.913Z,28.57
2018-04-08T03:50:43.418Z,25.67
2018-04-08T03:53:10.874Z,29.37
2018-04-08T03:55:38.321Z,29.83
2018-04-08T03:58:06.570Z,28.90
2018-04-08T04:00:34.070Z,27.93
2018-04-08T04:03:01.530Z,28.20
2018-04-08T04:05:29.005Z,30.63
2018-04-08T04:07:56.489Z,28.57
2018-04-08T04:10:23.966Z,26.80
2018-04-08T04:12:51.550Z,34.17
2018-04-08T04:15:19.038Z,25.00
2018-04-08T04:17:46.502Z,25.43
2018-04-08T04:20:25.810Z,27.60
2018-04-08T04:23:05.109Z,26.23
2018-04-08T04:28:36.382Z,23.97
2018-04-08T04:31:03.858Z,27.80
2018-04-08T04:33:31.344Z,29.43
2018-04-08T04:35:58.834Z,25.80
2018-04-08T04:38:26.344Z,30.33
2018-04-08T04:40:54.589Z,27.67
2018-04-08T04:43:22.054Z,25.77
2018-04-08T04:45:49.521Z,27.37
2018-04-08T04:48:17.006Z,27.83
2018-04-08T04:50:45.311Z,28.57
2018-04-08T04:53:12.774Z,28.40
2018-04-08T04:55:40.252Z,35.23
2018-04-08T04:58:07.736Z,31.57
2018-04-08T05:00:35.218Z,30.27
2018-04-08T05:03:03.454Z,27.90
2018-04-08T05:05:30.930Z,28.93
2018-04-08T05:07:58.390Z,30.03
2018-04-08T05:10:25.913Z,34.00
2018-04-08T05:12:53.398Z,30.83
2018-04-08T05:15:20.874Z,30.77
2018-04-08T05:17:48.375Z,35.20
2018-04-08T05:20:15.847Z,32.33
2018-04-08T05:22:43.309Z,28.53
2018-04-08T05:25:10.803Z,32.30
2018-04-08T05:27:39.048Z,28.87
2018-04-08T05:30:07.317Z,30.63
2018-04-08T05:32:34.867Z,34.33
2018-04-08T05:35:02.334Z,29.30
2018-04-08T05:37:30.572Z,32.00
2018-04-08T05:39:58.025Z,33.60
2018-04-08T05:42:25.521Z,29.47
2018-04-08T05:44:52.977Z,32.77
2018-04-08T05:47:21.261Z,30.47
2018-04-08T05:49:49.466Z,34.77
2018-04-08T05:52:16.946Z,32.23
2018-04-08T05:54:44.435Z,30.47
2018-04-08T05:57:11.921Z,28.13
2018-04-08T05:59:39.381Z,28.00
2018-04-08T06:02:06.854Z,28.40
2018-04-08T06:04:35.102Z,29.03
2018-04-08T06:07:02.566Z,35.17
2018-04-08T06:09:30.050Z,27.40
2018-04-08T06:11:57.506Z,32.80
2018-04-08T06:14:25.734Z,29.50
2018-04-08T06:16:53.331Z,26.60
2018-04-08T06:19:21.579Z,31.87
2018-04-08T06:21:49.062Z,26.00
2018-04-08T06:24:17.318Z,27.13
2018-04-08T06:26:44.789Z,27.67
2018-04-08T06:29:12.262Z,30.70
2018-04-08T06:31:40.530Z,30.20
2018-04-08T06:34:08.831Z,28.60
2018-04-08T06:36:36.325Z,29.43
2018-04-08T06:39:03.822Z,26.97
2018-04-08T06:41:31.522Z,28.60
2018-04-08T06:43:58.984Z,30.93
2018-04-08T06:46:26.529Z,26.67
2018-04-08T06:48:53.986Z,24.43
2018-04-08T06:51:21.497Z,25.07
2018-04-08T06:53:48.973Z,26.90
2018-04-08T06:56:16.462Z,26.63
2018-04-08T06:58:43.957Z,23.93
2018-04-08T07:01:11.466Z,24.00
2018-04-08T07:03:38.948Z,24.27
2018-04-08T07:06:06.492Z,28.83
2018-04-08T07:08:34.036Z,26.63
2018-04-08T07:11:01.497Z,24.90
2018-04-08T07:13:29.037Z,22.70
2018-04-08T07:15:57.280Z,25.33
2018-04-08T07:18:24.794Z,20.33
2018-04-08T07:20:53.037Z,23.40
2018-04-08T07:23:20.534Z,24.93
2018-04-08T07:25:47.990Z,25.30
2018-04-08T07:28:15.451Z,22.40
2018-04-08T07:30:42.939Z,22.93
2018-04-08T07:33:11.229Z,23.70
2018-04-08T07:35:38.690Z,25.47
2018-04-08T07:38:06.187Z,22.57
2018-04-08T07:40:34.406Z,24.93
2018-04-08T07:43:01.874Z,20.33
2018-04-08T07:45:29.364Z,22.73
2018-04-08T07:47:56.855Z,21.90
2018-04-08T07:50:24.349Z,18.10
2018-04-08T07:52:51.874Z,19.20
2018-04-08T07:55:19.374Z,19.00
2018-04-08T07:57:47.638Z,22.13
2018-04-08T08:00:15.115Z,19.30
2018-04-08T08:02:43.378Z,19.50
2018-04-08T08:05:10.885Z,20.20
2018-04-08T08:07:38.338Z,21.53
2018-04-08T08:10:05.850Z,19.43
2018-04-08T08:12:33.309Z,16.60
2018-04-08T08:15:00.817Z,18.97
2018-04-08T08:17:28.270Z,19.37
2018-04-08T08:19:55.726Z,19.03
2018-04-08T08:22:23.210Z,17.60
2018-04-08T08:24:50.673Z,17.47
2018-04-08T08:27:18.181Z,18.23
2018-04-08T08:29:45.659Z,19.37
2018-04-08T08:32:13.150Z,18.33
2018-04-08T08:34:40.659Z,19.77
2018-04-08T08:37:08.141Z,19.13
2018-04-08T08:39:35.601Z,17.37
2018-04-08T08:42:03.081Z,17.87
2018-04-08T08:44:30.571Z,17.73
2018-04-08T08:46:58.045Z,19.30
2018-04-08T08:49:25.547Z,16.13
2018-04-08T08:51:53.046Z,17.47
2018-04-08T08:54:20.526Z,18.47
2018-04-08T08:56:48.005Z,19.33
2018-04-08T08:59:15.474Z,15.90
2018-04-08T09:01:43.745Z,16.20
2018-04-08T09:04:11.297Z,16.77
2018-04-08T09:06:38.780Z,15.90
2018-04-08T09:09:06.262Z,15.73
2018-04-08T09:11:34.489Z,18.45
2018-04-08T09:14:02.002Z,15.35
2018-04-08T09:16:29.467Z,16.27
2018-04-08T09:19:00.306Z,18.40
2018-04-08T09:21:29.394Z,15.50
2018-04-08T09:27:03.755Z,15.82
2018-04-08T09:29:31.271Z,15.13
2018-04-08T09:31:58.764Z,15.75
2018-04-08T09:34:26.240Z,15.43
2018-04-08T09:36:53.726Z,14.02
2018-04-08T09:39:21.972Z,15.52
2018-04-08T09:41:49.454Z,14.57
2018-04-08T09:44:16.963Z,16.42
2018-04-08T09:46:44.442Z,17.83
2018-04-08T09:49:11.945Z,15.23
2018-04-08T09:51:39.434Z,19.23
2018-04-08T09:54:06.915Z,16.10
2018-04-08T09:56:34.418Z,16.80
2018-04-08T09:59:01.910Z,15.10
2018-04-08T10:04:32.576Z,15.30
2018-04-08T10:07:00.077Z,14.07
2018-04-08T10:09:27.580Z,15.10
2018-04-08T10:11:55.118Z,14.85
2018-04-08T10:14:22.578Z,14.60
2018-04-08T10:16:50.053Z,18.42
2018-04-08T10:19:17.600Z,15.55
2018-04-08T10:21:45.063Z,13.62
2018-04-08T10:24:12.610Z,14.98
2018-04-08T10:26:40.066Z,14.10
2018-04-08T10:29:07.681Z,13.45
2018-04-08T10:31:35.028Z,15.77
2018-04-08T10:34:02.566Z,15.05
2018-04-08T10:36:30.094Z,14.98
2018-04-08T10:38:57.546Z,15.75
2018-04-08T10:41:25.060Z,14.75
2018-04-08T10:43:52.577Z,13.38
2018-04-08T10:46:20.060Z,13.07
2018-04-08T10:48:47.555Z,13.25
2018-04-08T10:51:15.058Z,17.77
2018-04-08T10:53:42.541Z,14.63
2018-04-08T10:56:10.033Z,13.73
2018-04-08T10:58:37.497Z,17.30
2018-04-08T11:01:05.760Z,12.90
2018-04-08T11:03:33.222Z,17.30
2018-04-08T11:06:00.710Z,16.33
2018-04-08T11:08:28.170Z,15.05
2018-04-08T11:10:55.690Z,14.30
2018-04-08T11:13:23.150Z,13.43
2018-04-08T11:15:51.438Z,13.25
2018-04-08T11:18:18.925Z,11.90
2018-04-08T11:20:46.382Z,13.82
2018-04-08T11:23:13.866Z,12.00
2018-04-08T11:25:41.385Z,15.73
2018-04-08T11:28:08.822Z,12.70
2018-04-08T11:30:36.283Z,13.00
2018-04-08T11:33:03.791Z,14.05
2018-04-08T11:35:31.267Z,14.25
2018-04-08T11:37:58.735Z,12.80
2018-04-08T11:40:26.226Z,14.15
2018-04-08T11:42:53.686Z,11.38
2018-04-08T11:45:21.192Z,12.00
2018-04-08T11:47:48.666Z,15.82
2018-04-08T11:50:16.163Z,14.75
2018-04-08T11:52:44.423Z,14.68
2018-04-08T11:55:11.897Z,12.65
2018-04-08T11:57:39.350Z,13.20
2018-04-08T12:00:06.835Z,12.60
2018-04-08T12:02:34.318Z,14.60
2018-04-08T12:05:02.578Z,13.02
2018-04-08T12:07:30.035Z,14.15
2018-04-08T12:09:57.630Z,13.70
2018-04-08T12:12:25.850Z,13.88
2018-04-08T12:14:53.310Z,14.48
2018-04-08T12:17:20.790Z,13.07
2018-04-08T12:19:48.274Z,12.80
2018-04-08T12:22:15.739Z,15.02
2018-04-08T12:24:43.992Z,14.52
2018-04-08T12:27:11.469Z,13.55
2018-04-08T12:29:38.986Z,13.13
2018-04-08T12:32:07.273Z,13.23
2018-04-08T12:34:34.699Z,14.23
2018-04-08T12:37:02.186Z,12.23
2018-04-08T12:39:29.642Z,12.35
2018-04-08T12:41:57.895Z,13.05
2018-04-08T12:44:25.355Z,12.37
2018-04-08T12:46:52.862Z,17.98
2018-04-08T12:49:20.332Z,12.60
2018-04-08T12:51:47.844Z,13.23
2018-04-08T12:54:15.306Z,17.42
2018-04-08T12:56:43.536Z,11.77
2018-04-08T12:59:11.040Z,12.75
2018-04-08T13:01:38.518Z,10.73
2018-04-08T13:04:05.984Z,12.20
2018-04-08T13:06:33.454Z,14.10
2018-04-08T13:09:00.926Z,19.90
2018-04-08T13:11:28.407Z,10.05
2018-04-08T13:13:55.888Z,10.98
2018-04-08T13:16:24.150Z,10.52
2018-04-08T13:18:51.632Z,10.45
2018-04-08T13:21:19.854Z,11.95
2018-04-08T13:23:47.324Z,12.90
2018-04-08T13:26:14.798Z,12.43
2018-04-08T13:28:42.259Z,12.10
2018-04-08T13:31:09.749Z,12.57
2018-04-08T13:33:37.967Z,9.23
2018-04-08T13:36:05.422Z,10.50
2018-04-08T13:38:32.902Z,14.25
2018-04-08T13:41:00.363Z,13.15
2018-04-08T13:43:27.838Z,12.40
2018-04-08T13:45:56.065Z,19.87
2018-04-08T13:48:23.542Z,12.63
2018-04-08T13:50:51.002Z,9.55
2018-04-08T13:53:18.478Z,10.75
2018-04-08T13:55:45.938Z,8.82
2018-04-08T13:58:13.413Z,10.35
2018-04-08T14:00:41.638Z,10.55
2018-04-08T14:03:09.125Z,13.43
2018-04-08T14:05:36.585Z,10.55
2018-04-08T14:08:04.042Z,10.43
2018-04-08T14:10:31.513Z,9.27
2018-04-08T14:12:58.967Z,9.50
2018-04-08T14:15:26.480Z,8.68
2018-04-08T14:17:53.934Z,9.25
2018-04-08T14:20:21.398Z,14.80
2018-04-08T14:22:48.918Z,10.52
2018-04-08T14:25:16.374Z,9.38
2018-04-08T14:27:43.853Z,10.95
2018-04-08T14:30:11.345Z,12.02
2018-04-08T14:32:38.829Z,12.63
2018-04-08T14:35:06.319Z,9.60
2018-04-08T14:37:34.546Z,10.10
2018-04-08T14:40:02.006Z,10.70
2018-04-08T14:42:29.498Z,12.23
2018-04-08T14:44:56.954Z,10.20
2018-04-08T14:47:24.409Z,11.43
2018-04-08T14:49:51.882Z,9.03
2018-04-08T14:52:20.111Z,12.67
2018-04-08T14:54:47.602Z,10.70
2018-04-08T14:57:15.126Z,9.63
2018-04-08T14:59:42.597Z,9.87
2018-04-08T15:02:10.058Z,13.30
2018-04-08T15:04:37.530Z,9.80
2018-04-08T15:07:04.999Z,14.27
2018-04-08T15:09:32.446Z,11.17
2018-04-08T15:11:59.918Z,8.83
2018-04-08T15:14:28.138Z,11.40
2018-04-08T15:16:55.622Z,11.47
2018-04-08T15:19:23.082Z,13.03
2018-04-08T15:21:50.550Z,11.27
2018-04-08T15:24:18.026Z,11.10
2018-04-08T15:26:45.525Z,10.33
2018-04-08T15:29:13.002Z,13.23
2018-04-08T15:31:40.505Z,12.03
2018-04-08T15:34:07.942Z,8.57
2018-04-08T15:36:35.422Z,10.50
2018-04-08T15:39:03.642Z,10.83
2018-04-08T15:41:31.138Z,13.17
2018-04-08T15:43:58.607Z,11.20
2018-04-08T15:46:26.070Z,11.93
2018-04-08T15:48:55.028Z,11.33
2018-04-08T15:51:22.501Z,10.77
2018-04-08T15:53:49.947Z,14.57
2018-04-08T15:56:17.441Z,8.57
2018-04-08T15:58:44.914Z,10.47
2018-04-08T16:01:13.178Z,12.37
2018-04-08T16:03:40.630Z,9.10
2018-04-08T16:06:08.107Z,8.13
2018-04-08T16:08:35.581Z,11.27
2018-04-08T16:11:03.035Z,11.40
2018-04-08T16:13:30.805Z,8.53
2018-04-08T16:15:58.263Z,10.37
2018-04-08T16:18:25.811Z,8.00
2018-04-08T16:20:54.050Z,9.33
2018-04-08T16:23:21.522Z,7.97
2018-04-08T16:25:48.977Z,10.80
2018-04-08T16:28:16.457Z,11.50
2018-04-08T16:30:44.047Z,9.30
2018-04-08T16:33:11.505Z,11.80
2018-04-08T16:35:38.966Z,10.70
2018-04-08T16:38:06.523Z,8.50
2018-04-08T16:40:34.001Z,10.93
2018-04-08T16:43:01.460Z,9.57
2018-04-08T16:45:29.008Z,9.87
2018-04-08T16:47:56.487Z,9.50
2018-04-08T16:50:23.950Z,13.13
2018-04-08T16:52:51.432Z,9.40
2018-04-08T16:55:18.891Z,12.30
2018-04-08T16:57:46.399Z,10.57
2018-04-08T17:00:13.859Z,9.57
2018-04-08T17:02:41.343Z,10.83
2018-04-08T17:05:08.807Z,13.03
2018-04-08T17:07:36.289Z,12.23
2018-04-08T17:10:04.668Z,12.63
2018-04-08T17:12:32.098Z,11.47
2018-04-08T17:14:59.554Z,9.97
2018-04-08T17:17:27.063Z,9.90
2018-04-08T17:19:55.296Z,9.87
2018-04-08T17:22:22.767Z,15.37
2018-04-08T17:24:50.272Z,11.70
2018-04-08T17:30:08.986Z,11.57
2018-04-08T17:32:36.457Z,13.70
2018-04-08T17:35:03.911Z,9.70
2018-04-08T17:37:31.486Z,13.17
2018-04-08T17:39:58.961Z,9.23
2018-04-08T17:42:27.180Z,13.87
2018-04-08T17:44:54.654Z,9.53
2018-04-08T17:47:22.110Z,10.93
2018-04-08T17:49:49.586Z,12.60
2018-04-08T17:52:17.066Z,10.60
2018-04-08T17:54:45.295Z,11.90
2018-04-08T17:57:12.766Z,10.70
2018-04-08T17:59:40.222Z,9.83
2018-04-08T18:02:07.710Z,11.13
2018-04-08T18:04:35.198Z,13.73
2018-04-08T18:07:02.677Z,13.17
2018-04-08T18:09:30.228Z,15.23
2018-04-08T18:11:57.710Z,16.63
2018-04-08T18:14:25.186Z,10.97
2018-04-08T18:16:52.647Z,13.07
2018-04-08T18:19:20.128Z,14.83
2018-04-08T18:21:47.648Z,12.53
2018-04-08T18:24:15.110Z,13.70
2018-04-08T18:26:42.582Z,11.90
2018-04-08T18:29:10.044Z,13.20
2018-04-08T18:31:37.530Z,13.33
2018-04-08T18:34:05.759Z,10.83
2018-04-08T18:36:33.246Z,11.07
2018-04-08T18:39:00.832Z,12.50
2018-04-08T18:41:29.046Z,11.23
2018-04-08T18:43:56.502Z,11.97
2018-04-08T18:46:24.186Z,12.37
2018-04-08T18:48:51.638Z,12.27
2018-04-08T18:51:19.862Z,10.77
2018-04-08T18:53:48.104Z,10.77
2018-04-08T18:56:15.585Z,11.33
2018-04-08T18:58:43.827Z,13.10
2018-04-08T19:01:11.277Z,10.90
2018-04-08T19:03:38.758Z,11.90
2018-04-08T19:06:06.221Z,11.43
2018-04-08T19:08:33.690Z,9.60
2018-04-08T19:11:01.909Z,11.33
2018-04-08T19:13:29.390Z,12.27
2018-04-08T19:15:56.846Z,13.20
2018-04-08T19:18:24.306Z,10.67
2018-04-08T19:20:51.790Z,10.73
2018-04-08T19:23:19.251Z,12.73
2018-04-08T19:25:46.730Z,11.43
2018-04-08T19:28:14.984Z,13.43
2018-04-08T19:30:42.443Z,12.50
2018-04-08T19:33:09.918Z,10.23
2018-04-08T19:35:38.174Z,15.10
2018-04-08T19:38:05.655Z,11.17
2018-04-08T19:40:33.909Z,10.33
2018-04-08T19:43:01.421Z,11.03
2018-04-08T19:45:28.865Z,14.03
2018-04-08T19:47:56.326Z,13.53
2018-04-08T19:50:23.822Z,16.13
2018-04-08T19:52:51.298Z,11.33
2018-04-08T19:55:18.773Z,12.17
2018-04-08T19:57:46.242Z,12.73
2018-04-08T20:00:14.490Z,13.17
2018-04-08T20:02:41.957Z,10.53
2018-04-08T20:05:09.426Z,11.37
2018-04-08T20:07:37.644Z,12.97
2018-04-08T20:10:05.121Z,11.17
2018-04-08T20:12:32.587Z,11.87
2018-04-08T20:15:00.083Z,13.30
2018-04-08T20:17:28.319Z,14.07
2018-04-08T20:19:55.786Z,12.43
2018-04-08T20:22:23.272Z,12.10
2018-04-08T20:24:50.742Z,13.13
2018-04-08T20:27:18.212Z,13.37
2018-04-08T20:29:45.706Z,11.97
2018-04-08T20:32:13.190Z,13.60
2018-04-08T20:34:40.654Z,13.20
2018-04-08T20:37:16.028Z,13.60
2018-04-08T20:39:43.532Z,14.27
2018-04-08T20:42:10.998Z,12.10
2018-04-08T20:44:38.481Z,14.37
2018-04-08T20:47:05.950Z,17.80
2018-04-08T20:49:34.202Z,13.23
2018-04-08T20:52:01.663Z,15.07
2018-04-08T20:54:29.162Z,17.23
2018-04-08T20:56:56.634Z,14.17
2018-04-08T20:59:24.123Z,13.67
2018-04-08T21:01:51.579Z,15.90
2018-04-08T21:04:19.047Z,13.40
2018-04-08T21:06:46.550Z,14.57
2018-04-08T21:09:14.010Z,16.37
2018-04-08T21:11:41.471Z,14.60
2018-04-08T21:14:08.952Z,15.67
2018-04-08T21:16:36.448Z,17.07
2018-04-08T21:19:03.940Z,19.13
2018-04-08T21:21:32.163Z,15.60
2018-04-08T21:23:59.618Z,16.73
2018-04-08T21:26:27.106Z,18.80
2018-04-08T21:28:54.587Z,16.20
2018-04-08T21:31:22.815Z,16.60
2018-04-08T21:33:50.314Z,18.07
2018-04-08T21:36:17.898Z,15.73
2018-04-08T21:38:45.354Z,16.47
2018-04-08T21:41:12.839Z,17.93
2018-04-08T21:43:40.318Z,21.10
2018-04-08T21:46:07.775Z,18.13
2018-04-08T21:48:35.253Z,18.47
2018-04-08T21:51:02.734Z,20.03
2018-04-08T21:53:30.997Z,23.20
2018-04-08T21:55:58.471Z,21.27
2018-04-08T21:58:26.730Z,21.43
2018-04-08T22:00:54.190Z,21.67
2018-04-08T22:03:21.672Z,24.67
2018-04-08T22:05:49.943Z,24.40
2018-04-08T22:08:18.175Z,19.93
2018-04-08T22:10:45.660Z,20.07
2018-04-08T22:13:13.147Z,21.00
2018-04-08T22:15:40.620Z,20.13
2018-04-08T22:18:08.866Z,22.23
2018-04-08T22:20:37.090Z,20.27
2018-04-08T22:23:04.574Z,21.57
2018-04-08T22:25:32.055Z,20.77
2018-04-08T22:28:00.302Z,20.37
2018-04-08T22:30:28.574Z,24.53
2018-04-08T22:32:56.050Z,23.07
2018-04-08T22:35:23.545Z,21.00
2018-04-08T22:37:51.022Z,19.47
2018-04-08T22:40:18.481Z,19.70
2018-04-08T22:42:45.987Z,20.97
2018-04-08T22:45:13.437Z,20.97
2018-04-08T22:47:40.934Z,21.67
2018-04-08T22:50:08.386Z,21.77
2018-04-08T22:52:35.842Z,21.73
2018-04-08T22:55:04.094Z,21.90
2018-04-08T22:57:31.583Z,24.53
2018-04-08T22:59:59.839Z,23.53
2018-04-08T23:02:27.293Z,22.70
2018-04-08T23:04:54.806Z,22.87
2018-04-08T23:07:22.265Z,22.17
2018-04-08T23:09:49.768Z,21.63
2018-04-08T23:12:17.319Z,22.83
2018-04-08T23:14:44.782Z,23.83
2018-04-08T23:17:12.270Z,22.13
2018-04-08T23:19:39.717Z,23.77
2018-04-08T23:22:07.186Z,24.73
2018-04-08T23:24:35.446Z,25.30
2018-04-08T23:27:02.926Z,29.03
2018-04-08T23:29:30.386Z,25.90
2018-04-08T23:31:57.870Z,22.60
2018-04-08T23:34:25.332Z,25.40
2018-04-08T23:36:52.813Z,22.33
2018-04-08T23:39:20.270Z,25.10
2018-04-08T23:41:47.754Z,24.43
2018-04-08T23:44:15.215Z,27.30
2018-04-08T23:46:42.665Z,24.33
2018-04-08T23:49:10.151Z,26.07
2018-04-08T23:51:38.399Z,21.53
2018-04-08T23:54:05.874Z,24.77
2018-04-08T23:56:34.106Z,26.00
2018-04-08T23:59:01.586Z,23.03
